Wetterstation Vordersexau
Wetterdaten: Woche 13.01.14 - 19.01.14 (KW3)
Datum Zeit Temp. A. Feuchte A. Luftdruck Regen Wind Richtung Taupunkt Windchill Windben
13.01.2014 00:00 0,6 C 82 % 1015,8 hPa 0,0 l/m 0,0 km/h N-NO -2,1 C 0,6 C 0,0 km/h
13.01.2014 01:00 -0,1 C 82 % 1015,7 hPa 0,0 l/m 0,0 km/h N-NO -2,8 C -0,1 C 0,0 km/h
13.01.2014 02:00 -0,6 C 81 % 1015,9 hPa 0,0 l/m 0,0 km/h SO -3,4 C -0,6 C 0,0 km/h
13.01.2014 03:00 -0,5 C 81 % 1015,8 hPa 0,0 l/m 0,0 km/h O-NO -3,3 C -0,5 C 0,0 km/h
13.01.2014 04:00 0,2 C 80 % 1015,1 hPa 0,0 l/m 0,0 km/h O-SO -2,8 C 0,2 C 0,0 km/h
13.01.2014 05:00 0,1 C 79 % 1015,1 hPa 0,0 l/m 0,0 km/h O-SO -3,1 C 0,1 C 0,0 km/h
13.01.2014 06:00 0,1 C 79 % 1014,4 hPa 0,0 l/m 0,0 km/h SO -3,1 C 0,1 C 0,0 km/h
13.01.2014 07:00 -0,1 C 79 % 1014,3 hPa 0,0 l/m 0,0 km/h O-SO -3,3 C -0,1 C 0,0 km/h
13.01.2014 08:00 0,8 C 78 % 1013,9 hPa 0,0 l/m 0,0 km/h O-NO -2,6 C 0,8 C 0,0 km/h
13.01.2014 09:00 1,8 C 75 % 1014,3 hPa 0,0 l/m 0,0 km/h O-SO -2,1 C 1,8 C 0,0 km/h
13.01.2014 10:00 3,9 C 74 % 1013,1 hPa 0,0 l/m 1,9 km/h O-NO -0,3 C 3,9 C 1,1 km/h
13.01.2014 11:00 5,8 C 72 % 1012,5 hPa 0,0 l/m 0,0 km/h O-SO 1,2 C 5,8 C 0,0 km/h
13.01.2014 12:00 7,5 C 73 % 1012,3 hPa 0,0 l/m 0,0 km/h W 3,0 C 7,5 C 0,0 km/h
13.01.2014 13:00 7,9 C 76 % 1011,3 hPa 0,0 l/m 0,0 km/h N 3,9 C 7,9 C 0,0 km/h
13.01.2014 14:00 8,3 C 83 % 1010,3 hPa 0,0 l/m 0,0 km/h SW 5,6 C 8,3 C 0,0 km/h
13.01.2014 15:00 7,8 C 86 % 1010,2 hPa 0,5 l/m 9,7 km/h S-SW 5,6 C 5,4 C 5,4 km/h
13.01.2014 16:00 7,2 C 85 % 1010,6 hPa 0,5 l/m 3,9 km/h W 4,9 C 7,2 C 2,2 km/h
13.01.2014 17:00 6,4 C 85 % 1010,5 hPa 1,0 l/m 0,0 km/h N 4,1 C 6,4 C 0,0 km/h
13.01.2014 18:00 6,2 C 84 % 1010,4 hPa 0,5 l/m 0,0 km/h SW 3,7 C 6,2 C 0,0 km/h
13.01.2014 19:00 5,9 C 83 % 1010,4 hPa 0,0 l/m 0,0 km/h W-NW 3,2 C 5,9 C 0,0 km/h
13.01.2014 20:00 5,6 C 82 % 1010,2 hPa 0,5 l/m 0,0 km/h W 2,8 C 5,6 C 0,0 km/h
13.01.2014 21:00 5,1 C 82 % 1009,7 hPa 0,0 l/m 0,0 km/h N-NW 2,3 C 5,1 C 0,0 km/h
13.01.2014 22:00 4,9 C 80 % 1009,0 hPa 0,0 l/m 0,0 km/h O-NO 1,7 C 4,9 C 0,0 km/h
13.01.2014 23:00 4,3 C 80 % 1008,5 hPa 0,0 l/m 0,0 km/h O-SO 1,2 C 4,3 C 0,0 km/h
14.01.2014 00:00 3,9 C 80 % 1007,6 hPa 0,0 l/m 0,0 km/h O-SO 0,8 C 3,9 C 0,0 km/h
14.01.2014 01:00 3,8 C 79 % 1007,0 hPa 0,0 l/m 0,0 km/h O-SO 0,5 C 3,8 C 0,0 km/h
14.01.2014 02:00 3,8 C 79 % 1006,6 hPa 0,0 l/m 0,0 km/h O-SO 0,5 C 3,8 C 0,0 km/h
14.01.2014 03:00 4,1 C 78 % 1006,1 hPa 0,0 l/m 0,0 km/h O-SO 0,6 C 4,1 C 0,0 km/h
14.01.2014 04:00 4,0 C 78 % 1005,5 hPa 0,0 l/m 0,0 km/h O-SO 0,5 C 4,0 C 0,0 km/h
14.01.2014 05:00 4,1 C 77 % 1004,8 hPa 0,0 l/m 0,0 km/h O 0,4 C 4,1 C 0,0 km/h
14.01.2014 06:00 4,1 C 76 % 1004,6 hPa 0,0 l/m 0,0 km/h O-SO 0,3 C 4,1 C 0,0 km/h
14.01.2014 07:00 3,9 C 76 % 1004,1 hPa 0,0 l/m 0,0 km/h N 0,1 C 3,9 C 0,0 km/h
14.01.2014 08:00 4,3 C 76 % 1004,4 hPa 0,0 l/m 0,0 km/h N 0,5 C 4,3 C 0,0 km/h
14.01.2014 09:00 4,6 C 75 % 1004,5 hPa 0,0 l/m 0,0 km/h N-NO 0,6 C 4,6 C 0,0 km/h
14.01.2014 10:00 5,4 C 74 % 1004,7 hPa 0,5 l/m 0,0 km/h W 1,1 C 5,4 C 0,0 km/h
14.01.2014 11:00 6,1 C 73 % 1004,4 hPa 0,5 l/m 0,0 km/h W 1,6 C 6,1 C 0,0 km/h
14.01.2014 12:00 5,8 C 73 % 1004,3 hPa 1,6 l/m 0,0 km/h O-NO 1,3 C 5,8 C 0,0 km/h
14.01.2014 13:00 5,8 C 74 % 1004,3 hPa 0,0 l/m 0,0 km/h O-SO 1,5 C 5,8 C 0,0 km/h
14.01.2014 14:00 7,2 C 78 % 1003,9 hPa 0,0 l/m 0,0 km/h W-SW 3,6 C 7,2 C 0,0 km/h
14.01.2014 15:00 7,1 C 87 % 1004,7 hPa 0,0 l/m 0,0 km/h W-SW 5,1 C 7,1 C 0,0 km/h
14.01.2014 16:00 6,6 C 87 % 1005,4 hPa 0,0 l/m 9,1 km/h W 4,6 C 4,5 C 5,0 km/h
14.01.2014 17:00 5,9 C 87 % 1006,1 hPa 0,0 l/m 2,6 km/h W-SW 3,9 C 5,9 C 1,4 km/h
14.01.2014 18:00 5,8 C 87 % 1006,5 hPa 0,0 l/m 0,0 km/h W 3,8 C 5,8 C 0,0 km/h
14.01.2014 19:00 5,6 C 87 % 1007,3 hPa 0,5 l/m 1,3 km/h SW 3,6 C 5,6 C 0,7 km/h
14.01.2014 20:00 4,4 C 88 % 1008,4 hPa 1,0 l/m 13,6 km/h S-SO 2,6 C -0,9 C 7,6 km/h
14.01.2014 21:00 3,8 C 87 % 1009,0 hPa 0,0 l/m 0,0 km/h S-SO 1,8 C 3,8 C 0,0 km/h
14.01.2014 22:00 3,8 C 87 % 1009,6 hPa 0,0 l/m 0,0 km/h S-SO 1,8 C 3,8 C 0,0 km/h
14.01.2014 23:00 3,4 C 86 % 1009,8 hPa 0,0 l/m 0,0 km/h N-NW 1,3 C 3,4 C 0,0 km/h
15.01.2014 00:00 3,4 C 86 % 1010,4 hPa 0,0 l/m 0,0 km/h SO 1,3 C 3,4 C 0,0 km/h
15.01.2014 01:00 3,3 C 86 % 1010,6 hPa 0,0 l/m 0,0 km/h O-SO 1,2 C 3,3 C 0,0 km/h
15.01.2014 02:00 2,8 C 86 % 1011,2 hPa 0,0 l/m 0,0 km/h O-NO 0,7 C 2,8 C 0,0 km/h
15.01.2014 03:00 2,7 C 85 % 1011,1 hPa 0,0 l/m 0,0 km/h NO 0,4 C 2,7 C 0,0 km/h
15.01.2014 04:00 2,3 C 85 % 1011,7 hPa 0,0 l/m 0,0 km/h SO 0,0 C 2,3 C 0,0 km/h
15.01.2014 05:00 1,9 C 84 % 1011,3 hPa 0,0 l/m 0,0 km/h S -0,5 C 1,9 C 0,0 km/h
15.01.2014 06:00 2,2 C 85 % 1011,3 hPa 0,0 l/m 0,0 km/h O-NO -0,1 C 2,2 C 0,0 km/h
15.01.2014 07:00 0,4 C 87 % 1011,4 hPa 0,0 l/m 0,0 km/h NO -1,5 C 0,4 C 0,0 km/h
15.01.2014 08:00 -0,4 C 87 % 1011,4 hPa 0,0 l/m 0,0 km/h NO -2,3 C -0,4 C 0,0 km/h
15.01.2014 09:00 1,8 C 82 % 1011,7 hPa 0,0 l/m 0,0 km/h O-SO -0,9 C 1,8 C 0,0 km/h
15.01.2014 10:00 8,0 C 86 % 1011,3 hPa 0,5 l/m 5,2 km/h S-SO 5,8 C 8,0 C 2,9 km/h
15.01.2014 11:00 11,6 C 71 % 1011,0 hPa 0,0 l/m 6,5 km/h S 6,5 C 11,6 C 3,6 km/h
15.01.2014 12:00 11,2 C 61 % 1010,2 hPa 0,0 l/m 1,9 km/h W-SW 4,0 C 11,2 C 1,1 km/h
15.01.2014 13:00 9,4 C 59 % 1009,4 hPa 0,0 l/m 22,7 km/h W-SW 1,8 C 1,7 C 12,6 km/h
15.01.2014 14:00 8,2 C 62 % 1008,8 hPa 0,0 l/m 25,9 km/h W-SW 1,4 C -0,9 C 14,4 km/h
15.01.2014 15:00 7,3 C 65 % 1009,1 hPa 0,0 l/m 14,9 km/h S-SO 1,2 C 1,9 C 8,3 km/h
15.01.2014 16:00 6,9 C 64 % 1008,8 hPa 0,0 l/m 1,9 km/h SO 0,6 C 6,9 C 1,1 km/h
15.01.2014 17:00 6,4 C 66 % 981,4 hPa 0,0 l/m 0,0 km/h O-SO 0,5 C 6,4 C 0,0 km/h
15.01.2014 18:00 5,9 C 69 % 981,1 hPa 0,0 l/m 0,0 km/h O-NO 0,7 C 5,9 C 0,0 km/h
15.01.2014 19:00 5,4 C 74 % 981,0 hPa 0,0 l/m 0,0 km/h O-SO 1,1 C 5,4 C 0,0 km/h
15.01.2014 20:00 5,1 C 77 % 980,4 hPa 0,0 l/m 0,0 km/h O-NO 1,4 C 5,1 C 0,0 km/h
15.01.2014 21:00 4,6 C 80 % 980,2 hPa 0,0 l/m 0,0 km/h S 1,5 C 4,6 C 0,0 km/h
15.01.2014 22:00 6,4 C 70 % 980,0 hPa 0,0 l/m 4,3 km/h N-NO 1,3 C 6,4 C 4,3 km/h
15.01.2014 23:00 6,4 C 69 % 979,9 hPa 0,0 l/m 0,0 km/h SO 1,1 C 6,4 C 0,0 km/h
16.01.2014 00:00 5,4 C 78 % 980,1 hPa 0,0 l/m 1,8 km/h O-SO 1,9 C 5,4 C 1,8 km/h
16.01.2014 01:00 4,5 C 85 % 979,3 hPa 0,5 l/m 0,0 km/h O-NO 2,2 C 4,5 C 0,0 km/h
16.01.2014 02:00 4,3 C 86 % 978,9 hPa 0,0 l/m 0,0 km/h O-NO 2,2 C 4,3 C 0,0 km/h
16.01.2014 03:00 4,8 C 87 % 979,1 hPa 0,0 l/m 0,0 km/h O-SO 2,8 C 4,8 C 0,0 km/h
16.01.2014 04:00 5,3 C 86 % 978,1 hPa 0,0 l/m 0,0 km/h SO 3,2 C 5,3 C 0,0 km/h
16.01.2014 05:00 4,9 C 86 % 977,2 hPa 0,0 l/m 0,0 km/h SO 2,8 C 4,9 C 0,0 km/h
16.01.2014 06:00 4,9 C 86 % 976,6 hPa 0,0 l/m 0,0 km/h O 2,8 C 4,9 C 0,0 km/h
16.01.2014 07:00 4,3 C 86 % 976,3 hPa 0,0 l/m 0,0 km/h N-NW 2,2 C 4,3 C 0,0 km/h
16.01.2014 08:00 3,8 C 86 % 976,3 hPa 0,0 l/m 0,0 km/h O-SO 1,7 C 3,8 C 0,0 km/h
16.01.2014 09:00 4,4 C 85 % 1003,1 hPa 0,0 l/m 0,0 km/h O-SO 2,1 C 4,4 C 0,0 km/h
16.01.2014 10:00 6,1 C 84 % 1003,0 hPa 0,0 l/m 0,0 km/h W 3,6 C 6,1 C 0,0 km/h
16.01.2014 11:00 6,9 C 85 % 1002,6 hPa 0,0 l/m 0,0 km/h N-NW 4,6 C 6,9 C 0,0 km/h
16.01.2014 12:00 7,6 C 87 % 975,2 hPa 0,0 l/m 0,0 km/h W-NW 5,6 C 7,6 C 0,0 km/h
16.01.2014 13:00 8,5 C 86 % 974,5 hPa 0,0 l/m 0,0 km/h NW 6,3 C 8,5 C 0,0 km/h
16.01.2014 14:00 8,5 C 86 % 973,7 hPa 0,0 l/m 0,0 km/h W-NW 6,3 C 8,5 C 0,0 km/h
16.01.2014 15:00 7,9 C 87 % 974,0 hPa 0,0 l/m 0,0 km/h S-SO 5,9 C 7,9 C 0,0 km/h
16.01.2014 16:00 7,9 C 87 % 974,9 hPa 0,5 l/m 7,8 km/h S 5,9 C 6,8 C 4,3 km/h
16.01.2014 17:00 7,4 C 87 % 975,7 hPa 0,0 l/m 7,8 km/h S 5,4 C 6,3 C 4,3 km/h
16.01.2014 18:00 6,6 C 87 % 975,9 hPa 1,6 l/m 13,6 km/h S-SO 4,6 C 1,7 C 7,6 km/h
16.01.2014 19:00 5,9 C 87 % 976,5 hPa 1,6 l/m 0,0 km/h SO 3,9 C 5,9 C 0,0 km/h
16.01.2014 20:00 5,9 C 87 % 976,1 hPa 1,6 l/m 18,8 km/h S-SO 3,9 C -1,5 C 10,4 km/h
16.01.2014 21:00 6,3 C 87 % 976,3 hPa 0,5 l/m 11,5 km/h SW 4,3 C 2,6 C 11,5 km/h
16.01.2014 22:00 5,9 C 87 % 976,4 hPa 0,0 l/m 0,0 km/h NO 3,9 C 5,9 C 0,0 km/h
16.01.2014 23:00 5,2 C 87 % 975,6 hPa 0,0 l/m 0,0 km/h NO 3,2 C 5,2 C 0,0 km/h
17.01.2014 00:00 4,9 C 86 % 976,6 hPa 0,0 l/m 0,0 km/h NO 2,8 C 4,9 C 0,0 km/h
17.01.2014 01:00 4,5 C 85 % 976,4 hPa 0,0 l/m 0,0 km/h O-SO 2,2 C 4,5 C 0,0 km/h
17.01.2014 02:00 5,0 C 85 % 975,9 hPa 0,0 l/m 1,4 km/h SW 2,7 C 5,0 C 1,4 km/h
17.01.2014 03:00 5,3 C 87 % 977,2 hPa 0,0 l/m 0,7 km/h NO 3,3 C 5,3 C 0,7 km/h
17.01.2014 04:00 4,7 C 87 % 976,4 hPa 0,0 l/m 0,0 km/h O-NO 2,7 C 4,7 C 0,0 km/h
17.01.2014 05:00 4,8 C 86 % 975,9 hPa 0,0 l/m 0,0 km/h N-NO 2,7 C 4,8 C 0,0 km/h
17.01.2014 06:00 4,3 C 86 % 975,6 hPa 0,0 l/m 0,0 km/h NO 2,2 C 4,3 C 0,0 km/h
17.01.2014 07:00 4,1 C 85 % 975,2 hPa 0,0 l/m 0,0 km/h NO 1,8 C 4,1 C 0,0 km/h
17.01.2014 08:00 3,6 C 85 % 975,3 hPa 0,0 l/m 0,0 km/h O-SO 1,3 C 3,6 C 0,0 km/h
17.01.2014 09:00 3,5 C 85 % 975,7 hPa 0,0 l/m 0,0 km/h O-NO 1,2 C 3,5 C 0,0 km/h
17.01.2014 10:00 4,4 C 84 % 976,2 hPa 0,0 l/m 0,0 km/h O-NO 1,9 C 4,4 C 0,0 km/h
17.01.2014 11:00 5,8 C 83 % 976,1 hPa 0,0 l/m 0,0 km/h NO 3,1 C 5,8 C 0,0 km/h
17.01.2014 12:00 8,1 C 86 % 975,2 hPa 0,0 l/m 0,0 km/h W 5,9 C 8,1 C 0,0 km/h
17.01.2014 13:00 9,8 C 85 % 974,9 hPa 0,0 l/m 0,6 km/h NW 7,4 C 9,8 C 0,4 km/h
17.01.2014 14:00 9,3 C 81 % 974,7 hPa 0,0 l/m 0,0 km/h SO 6,2 C 9,3 C 0,0 km/h
17.01.2014 15:00 13,7 C 67 % 974,7 hPa 0,0 l/m 0,0 km/h O-NO 7,7 C 13,7 C 0,0 km/h
17.01.2014 16:00 15,9 C 60 % 974,6 hPa 0,0 l/m 0,0 km/h O-SO 8,1 C 15,9 C 0,0 km/h
17.01.2014 17:00 6,2 C 77 % 974,5 hPa 0,0 l/m 0,0 km/h N-NO 2,5 C 6,2 C 0,0 km/h
17.01.2014 18:00 3,5 C 85 % 974,7 hPa 0,0 l/m 0,0 km/h O-SO 1,2 C 3,5 C 0,0 km/h
17.01.2014 19:00 2,6 C 87 % 1002,2 hPa 0,0 l/m 0,0 km/h O-SO 0,7 C 2,6 C 0,0 km/h
17.01.2014 20:00 2,1 C 87 % 1002,3 hPa 0,0 l/m 0,0 km/h SO 0,2 C 2,1 C 0,0 km/h
17.01.2014 21:00 1,6 C 87 % 975,5 hPa 0,0 l/m 0,0 km/h O-SO -0,3 C 1,6 C 0,0 km/h
17.01.2014 22:00 1,2 C 87 % 975,7 hPa 0,0 l/m 0,0 km/h SO -0,7 C 1,2 C 0,0 km/h
17.01.2014 23:00 0,9 C 86 % 975,6 hPa 0,0 l/m 1,8 km/h O-SO -1,2 C 0,9 C 1,8 km/h
18.01.2014 00:00 0,1 C 86 % 975,7 hPa 0,0 l/m 0,0 km/h N-NO -2,0 C 0,1 C 0,0 km/h
18.01.2014 01:00 -0,7 C 86 % 975,7 hPa 0,0 l/m 0,0 km/h O-SO -2,7 C -0,7 C 0,0 km/h
18.01.2014 02:00 -0,8 C 85 % 975,9 hPa 0,0 l/m 0,0 km/h O-SO -3,0 C -0,8 C 0,0 km/h
18.01.2014 03:00 -1,0 C 85 % 975,9 hPa 0,0 l/m 0,0 km/h O-SO -3,2 C -1,0 C 0,0 km/h
18.01.2014 04:00 -0,7 C 84 % 975,4 hPa 0,0 l/m 0,0 km/h O-NO -3,1 C -0,7 C 0,0 km/h
18.01.2014 05:00 -1,0 C 84 % 975,0 hPa 0,0 l/m 0,0 km/h NO -3,4 C -1,0 C 0,0 km/h
18.01.2014 06:00 -1,2 C 83 % 974,8 hPa 0,0 l/m 0,0 km/h NO -3,7 C -1,2 C 0,0 km/h
18.01.2014 07:00 -1,7 C 84 % 974,4 hPa 0,0 l/m 0,0 km/h NO -4,0 C -1,7 C 0,0 km/h
18.01.2014 08:00 -1,9 C 83 % 974,5 hPa 0,0 l/m 0,0 km/h NO -4,4 C -1,9 C 0,0 km/h
18.01.2014 09:00 -0,5 C 81 % 974,5 hPa 0,0 l/m 0,0 km/h NO -3,3 C -0,5 C 0,0 km/h
18.01.2014 10:00 1,1 C 81 % 974,4 hPa 0,0 l/m 0,0 km/h O-NO -1,8 C 1,1 C 0,0 km/h
18.01.2014 11:00 2,8 C 80 % 974,3 hPa 0,0 l/m 0,0 km/h O-NO -0,3 C 2,8 C 0,0 km/h
18.01.2014 12:00 5,3 C 83 % 973,3 hPa 0,0 l/m 0,0 km/h SO 2,7 C 5,3 C 0,0 km/h
18.01.2014 13:00 9,3 C 87 % 972,8 hPa 0,0 l/m 0,0 km/h NW 7,2 C 9,3 C 0,0 km/h
18.01.2014 14:00 9,8 C 77 % 972,0 hPa 0,0 l/m 0,0 km/h W-NW 6,0 C 9,8 C 0,0 km/h
18.01.2014 15:00 10,0 C 73 % 971,5 hPa 0,0 l/m 0,0 km/h NW 5,4 C 10,0 C 0,0 km/h
18.01.2014 16:00 7,0 C 77 % 971,0 hPa 0,0 l/m 0,0 km/h NW 3,2 C 7,0 C 0,0 km/h
18.01.2014 17:00 2,9 C 82 % 970,6 hPa 0,0 l/m 0,0 km/h NW 0,1 C 2,9 C 0,0 km/h
18.01.2014 18:00 1,1 C 86 % 970,9 hPa 0,0 l/m 0,0 km/h NW -1,0 C 1,1 C 0,0 km/h
18.01.2014 19:00 0,4 C 87 % 970,8 hPa 0,0 l/m 0,0 km/h NW -1,5 C 0,4 C 0,0 km/h
18.01.2014 20:00 -0,2 C 87 % 970,2 hPa 0,0 l/m 0,0 km/h NW -2,1 C -0,2 C 0,0 km/h
18.01.2014 21:00 1,1 C 87 % 970,4 hPa 0,0 l/m 0,0 km/h NW -0,8 C 1,1 C 0,0 km/h
18.01.2014 22:00 1,2 C 87 % 969,8 hPa 0,0 l/m 0,0 km/h NW -0,7 C 1,2 C 0,0 km/h
18.01.2014 23:00 1,5 C 86 % 969,7 hPa 0,0 l/m 0,0 km/h W -0,6 C 1,5 C 0,0 km/h
19.01.2014 00:00 1,5 C 85 % 969,7 hPa 0,0 l/m 0,0 km/h W -0,7 C 1,5 C 0,0 km/h
19.01.2014 01:00 1,5 C 85 % 970,2 hPa 0,0 l/m 0,0 km/h N-NO -0,7 C 1,5 C 0,0 km/h
19.01.2014 02:00 1,9 C 84 % 970,1 hPa 0,0 l/m 0,0 km/h N-NO -0,5 C 1,9 C 0,0 km/h
19.01.2014 03:00 2,2 C 83 % 969,9 hPa 0,0 l/m 0,0 km/h N-NO -0,4 C 2,2 C 0,0 km/h
19.01.2014 04:00 1,8 C 84 % 969,5 hPa 0,0 l/m 0,0 km/h N-NO -0,6 C 1,8 C 0,0 km/h
19.01.2014 05:00 1,2 C 84 % 969,0 hPa 0,0 l/m 0,0 km/h N-NW -1,2 C 1,2 C 0,0 km/h
19.01.2014 06:00 2,1 C 83 % 969,0 hPa 0,0 l/m 0,0 km/h N -0,5 C 2,1 C 0,0 km/h
19.01.2014 07:00 2,2 C 83 % 968,7 hPa 0,0 l/m 0,0 km/h N-NO -0,4 C 2,2 C 0,0 km/h
19.01.2014 08:00 2,1 C 82 % 969,7 hPa 0,0 l/m 0,0 km/h W -0,6 C 2,1 C 0,0 km/h
19.01.2014 09:00 2,1 C 81 % 970,2 hPa 0,0 l/m 0,0 km/h SW -0,8 C 2,1 C 0,0 km/h
19.01.2014 10:00 2,3 C 81 % 970,4 hPa 0,0 l/m 0,0 km/h N -0,6 C 2,3 C 0,0 km/h
19.01.2014 11:00 2,6 C 80 % 970,5 hPa 0,0 l/m 0,0 km/h W-NW -0,5 C 2,6 C 0,0 km/h
19.01.2014 12:00 3,2 C 80 % 970,3 hPa 0,0 l/m 0,6 km/h W-SW 0,1 C 3,2 C 0,4 km/h
19.01.2014 13:00 2,8 C 83 % 970,9 hPa 0,0 l/m 0,0 km/h NO 0,2 C 2,8 C 0,0 km/h
19.01.2014 14:00 3,4 C 84 % 970,7 hPa 0,0 l/m 0,0 km/h W 1,0 C 3,4 C 0,0 km/h
19.01.2014 15:00 3,5 C 86 % 970,6 hPa 0,0 l/m 0,0 km/h W 1,4 C 3,5 C 0,0 km/h
19.01.2014 16:00 3,0 C 87 % 970,7 hPa 0,0 l/m 0,6 km/h NW 1,1 C 3,0 C 0,4 km/h
19.01.2014 17:00 2,6 C 86 % 970,8 hPa 0,0 l/m 0,0 km/h W-NW 0,5 C 2,6 C 0,0 km/h
19.01.2014 18:00 2,4 C 85 % 970,8 hPa 0,0 l/m 0,0 km/h W 0,1 C 2,4 C 0,0 km/h
19.01.2014 19:00 2,4 C 84 % 971,1 hPa 0,0 l/m 0,0 km/h NW -0,0 C 2,4 C 0,0 km/h
19.01.2014 20:00 2,4 C 83 % 971,3 hPa 0,0 l/m 0,0 km/h NW -0,2 C 2,4 C 0,0 km/h
19.01.2014 21:00 2,4 C 82 % 971,4 hPa 0,0 l/m 0,0 km/h NW -0,4 C 2,4 C 0,0 km/h
19.01.2014 22:00 2,4 C 82 % 971,3 hPa 0,0 l/m 0,0 km/h NW -0,4 C 2,4 C 0,0 km/h
19.01.2014 23:00 2,4 C 82 % 971,2 hPa 0,0 l/m 0,0 km/h NW -0,4 C 2,4 C 0,0 km/h
Min-Datum _ 18.01.14 15.01.14 19.01.14 - 13.01.14 - 18.01.14 18.01.14 13.01.14
_ Min-Zeit 08:19 13:19 07:19 - 00:19 - 08:19 08:19 00:19
Minimum _ -1,9 C 59 % 968,7 hPa - 0,0 km/h - -4,4 C -1,9 C 0,0 km/h
Max-Datum _ 17.01.14 14.01.14 13.01.14 14.01.14 15.01.14 - 17.01.14 17.01.14 15.01.14
_ Max-Zeit 16:19 20:19 02:19 12:19 14:19 - 16:19 16:19 14:19
Maximum _ 15,9 C 88 % 1015,9 hPa 1,6 l/m 25,9 km/h
W-SW
- 8,1 C 15,9 C 14,4 km/h
W-SW
Durchschnitt _ 4,2 C 82 % 988,8 hPa #14,0 l/m 1,1 km/h O-SO 1,3 C 3,9 C 0,7 km/h
www.sexauwetter.de